Corte Madera, CA

4:28 AM PDT on August 30, 2014 (GMT -0700)
Metro Oakland International | Change Station
CLOSE
Current Station
Airport
Location: Oakland,
Elevation: 7 ft
Nearby Weather Stations

Elev 7 ft 37.72 °N, 122.23 °W | Updated 35 minutes ago

Mostly Cloudy
Mostly Cloudy
60 °F
Feels Like 60 °F
N
0
Wind Variable Wind from North

Today
High -- | Low -- °F
--% Chance of Precip.
Yesterday
High -- | Low -- °F
Precip. -- in
6:38 AM 7:42 PM
Waxing Crescent, 21% visible
Pressure 29.90 in
Visibility 10.0 miles
Clouds Few 1000 ft
Scattered Clouds 15000 ft
Mostly Cloudy 18000 ft
Dew Point 56 °F
Humidity 86%
Rainfall 0.00 in
Snow Depth Not available.
UV 0 out of 12
Pollen 7.70 out of 12
PM2.5 Good
Flu Activity Not available.
METAR KOAK 301053Z 00000KT 10SM FEW010 SCT150 BKN180 16/13 A2990 RMK AO2 SLP124 T01560133

More Conditions Fewer Conditions

Pressure 29.90 in
Visibility 10.0 miles
Clouds Few 1000 ft
Scattered Clouds 15000 ft
Mostly Cloudy 18000 ft
Dew Point 56 °F
Humidity 86%
Rainfall 0.00 in
Snow Depth Not available.
UV 0 out of 12
Pollen 7.70 out of 12
PM2.5 Good
Flu Activity Not available.
METAR KOAK 301053Z 00000KT 10SM FEW010 SCT150 BKN180 16/13 A2990 RMK AO2 SLP124 T01560133

More Conditions Fewer Conditions

10-Day Weather Forecast

Almanac

Astronomy

Aug. 30, 2014 Rise Set
Actual Time 6:38 AM PDT 7:42 PM PDT
Civil Twilight 6:11 AM PDT 8:09 PM PDT
Nautical Twilight 5:39 AM PDT 8:41 PM PDT
Astronomical Twilight 5:05 AM PDT 9:14 PM PDT
Moon 11:25 AM PDT 10:25 PM PDT
Length of Visible Light 13h 57m
Length of Day
13h 03m
Tomorrow will be 2m 21s shorter.
Waxing Crescent, 21% of the Moon is Illuminated
Today
Waxing Crescent
Sep 2
First Quarter
Sep 8
Full
Sep 15
Last Quarter
Sep 24
New

Today's Extremes

State Highs State Lows

Community

WunderPhotos

Upload Photos

1,748,492 photos uploaded!

WunderBlogs® & News

By Dr. Jeff Masters
Director of Meteorology, Weather Underground
By Kari Strenfel
Meteorologist, Weather Underground
By Christopher C. Burt
Weather Historian, Weather Underground
August 30, 2014
August 30, 2014
August 30, 2014

Nearby

Air Quality

  Air Quality AQ Index Pollutant
Yesterday Good
PM2.5
Yesterday Good
OZONE
Current Good
PM2.5
Saturday Good
PM2.5
Sunday Good
PM2.5
Monday Good
PM2.5
Tuesday Good
PM2.5
Wednesday Good
PM2.5

Snow Depth

Station Depth Elevation
Echo Peak 1 in 7800 ft
Forestdale Creek 0 in 8029 ft
Blue Lakes 0 in 8000 ft
Rubicon #2 0 in 7500 ft
CSS Lab 3 in 6900 ft

Earthquake Activity

City Distance Mag. Time & Date
Ridgemark, California 107 miles 3.4 4:32 PM PDT
2014-08-29
The Geysers, California 64 miles 2.7 2:53 PM PDT
2014-08-29
Ridgemark, California 107 miles 3.0 2:44 PM PDT
2014-08-29
Minimum magnitude displayed is 2.5.

Coastal Water Temperatures

Place Temperature
San Francisco, CA 64.9 °F
Richmond, CA 66.9 °F
Port Chicago, CA 69.1 °F

Nearby Weather Stations